Time;durP1;ratioP1;P1;durP2;ratioP2;P2;SDS_P1;SDS_P2;PMS_P1;PMS_P2;Temp;Humidity;BMP_temperature;BMP_pressure;BME280_temperature;BME280_humidity;BME280_pressure;Samples;Min_cycle;Max_cycle;Signal;HPM_P1;HPM_P2
2021/01/27 00:00:21;;;;;;;;;;;-2.50;99.90;;;;;;5077353;28;19956;-64
2021/01/27 00:02:47;;;;;;;;;;;-2.40;99.90;;;;;;5080764;28;19975;-64
2021/01/27 00:05:17;;;;;;;;;;;-2.30;99.90;;;;;;5080295;28;19920;-64
2021/01/27 00:07:43;;;;;;;;;;;-2.30;99.90;;;;;;5075539;28;19928;-65
2021/01/27 00:10:09;;;;;;;;;;;-2.30;99.90;;;;;;5079862;28;19960;-65
2021/01/27 00:12:35;;;;;;;;;;;-2.40;99.90;;;;;;5084860;28;19920;-65
2021/01/27 00:15:01;;;;;;;;;;;-2.50;99.90;;;;;;5081598;28;19962;-65
2021/01/27 00:17:27;;;;;;;;;;;-2.50;99.90;;;;;;5080811;28;19912;-65
2021/01/27 00:19:53;;;;;;;;;;;-2.50;99.90;;;;;;5085533;28;19920;-66
2021/01/27 00:22:19;;;;;;;;;;;-2.50;99.90;;;;;;5074680;28;19916;-65
2021/01/27 00:24:45;;;;;;;;;;;-2.50;99.90;;;;;;5082635;28;19917;-66
2021/01/27 00:27:11;;;;;;;;;;;-2.60;99.90;;;;;;5081147;28;19928;-65
2021/01/27 00:29:36;;;;;;;;;;;-2.50;99.90;;;;;;5083371;28;19919;-65
2021/01/27 00:32:02;;;;;;;;;;;-2.50;99.90;;;;;;5080738;28;19993;-65
2021/01/27 00:34:28;;;;;;;;;;;-2.50;99.90;;;;;;5080638;28;19921;-65
2021/01/27 00:36:54;;;;;;;;;;;-2.50;99.90;;;;;;5082420;28;19923;-65
2021/01/27 00:39:20;;;;;;;;;;;-2.40;99.90;;;;;;5079547;28;19921;-65
2021/01/27 00:41:46;;;;;;;;;;;-2.50;99.90;;;;;;5072691;28;19920;-65
2021/01/27 00:44:12;;;;;;;;;;;-2.50;99.90;;;;;;5083115;28;19920;-65
2021/01/27 00:46:38;;;;;;;;;;;-2.50;99.90;;;;;;5081313;28;19912;-65
2021/01/27 00:49:04;;;;;;;;;;;-2.60;99.90;;;;;;5079221;28;19916;-65
2021/01/27 00:51:30;;;;;;;;;;;-2.60;99.90;;;;;;5083782;28;19916;-65
2021/01/27 00:53:56;;;;;;;;;;;-2.70;99.90;;;;;;5083045;28;19960;-65
2021/01/27 00:56:22;;;;;;;;;;;-2.70;99.90;;;;;;5072382;28;20319;-64
2021/01/27 00:58:48;;;;;;;;;;;-2.70;99.90;;;;;;5078410;28;19913;-65
2021/01/27 01:01:14;;;;;;;;;;;-2.70;99.90;;;;;;5072020;28;19912;-65
2021/01/27 01:03:40;;;;;;;;;;;-2.70;99.90;;;;;;5081321;28;20292;-65
2021/01/27 01:06:06;;;;;;;;;;;-2.60;99.90;;;;;;5079782;28;19951;-65
2021/01/27 01:08:32;;;;;;;;;;;-2.50;99.90;;;;;;5071795;28;19923;-65
2021/01/27 01:11:00;;;;;;;;;;;-2.50;99.90;;;;;;5079247;28;20028;-65
2021/01/27 01:13:27;;;;;;;;;;;-2.40;99.90;;;;;;5082884;28;20296;-65
2021/01/27 01:15:53;;;;;;;;;;;-2.50;99.90;;;;;;5075498;28;19923;-65
2021/01/27 01:18:19;;;;;;;;;;;-2.50;99.90;;;;;;5082158;28;20317;-65
2021/01/27 01:20:47;;;;;;;;;;;-2.50;99.90;;;;;;5086230;28;19912;-65
2021/01/27 01:23:13;;;;;;;;;;;-2.40;99.90;;;;;;5080349;28;20381;-65
2021/01/27 01:25:39;;;;;;;;;;;-2.40;99.90;;;;;;5080928;28;19920;-65
2021/01/27 01:28:05;;;;;;;;;;;-2.30;99.90;;;;;;5087442;28;19924;-66
2021/01/27 01:30:32;;;;;;;;;;;-2.30;99.90;;;;;;5076411;28;19916;-65
2021/01/27 01:32:59;;;;;;;;;;;-2.20;99.90;;;;;;5077167;28;19931;-65
2021/01/27 01:35:25;;;;;;;;;;;-2.20;99.90;;;;;;5062951;28;19913;-65
2021/01/27 01:37:51;;;;;;;;;;;-2.20;99.90;;;;;;5086980;28;20327;-65
2021/01/27 01:40:18;;;;;;;;;;;-2.20;99.90;;;;;;5085711;28;20351;-65
2021/01/27 01:42:44;;;;;;;;;;;-2.10;99.90;;;;;;5085721;28;19935;-65
2021/01/27 01:45:19;;;;;;;;;;;-2.10;99.90;;;;;;5088874;28;19921;-65
2021/01/27 01:47:45;;;;;;;;;;;-2.10;99.90;;;;;;5082518;28;19935;-65
2021/01/27 01:50:11;;;;;;;;;;;-2.20;99.90;;;;;;5081919;28;19921;-65
2021/01/27 01:52:37;;;;;;;;;;;-2.10;99.90;;;;;;5093548;28;19927;-65
2021/01/27 01:55:03;;;;;;;;;;;-2.10;99.90;;;;;;5085708;28;19920;-65
2021/01/27 01:57:29;;;;;;;;;;;-2.10;99.90;;;;;;5079224;28;19916;-65
2021/01/27 01:59:56;;;;;;;;;;;-2.10;99.90;;;;;;5083137;28;20363;-65
2021/01/27 02:02:22;;;;;;;;;;;-2.10;99.90;;;;;;5077335;28;19912;-65
2021/01/27 02:04:51;;;;;;;;;;;-2.00;99.90;;;;;;5080450;28;20449;-65
2021/01/27 02:07:17;;;;;;;;;;;-2.00;99.90;;;;;;5077233;28;20292;-65
2021/01/27 02:09:43;;;;;;;;;;;-2.00;99.90;;;;;;5080491;28;19947;-65
2021/01/27 02:12:24;;;;;;;;;;;-1.90;99.90;;;;;;5080307;28;20361;-65
2021/01/27 02:14:53;;;;;;;;;;;-1.90;99.90;;;;;;5085907;28;19916;-65
2021/01/27 02:17:31;;;;;;;;;;;-1.90;99.90;;;;;;5084286;28;19919;-65
2021/01/27 02:20:04;;;;;;;;;;;-1.80;99.90;;;;;;5077793;28;19920;-65
2021/01/27 02:22:35;;;;;;;;;;;-1.80;99.90;;;;;;5079832;28;19912;-65
2021/01/27 02:25:10;;;;;;;;;;;-1.70;99.90;;;;;;5073364;28;19920;-65
2021/01/27 02:27:38;;;;;;;;;;;-1.80;99.90;;;;;;5080321;28;19928;-65
2021/01/27 02:30:19;;;;;;;;;;;-1.80;99.90;;;;;;5082226;28;20292;-65
2021/01/27 02:33:04;;;;;;;;;;;-1.70;99.90;;;;;;5082434;28;19921;-65
2021/01/27 02:35:29;;;;;;;;;;;-1.70;99.90;;;;;;5087358;28;19913;-65
2021/01/27 02:37:58;;;;;;;;;;;-1.70;99.90;;;;;;5079838;28;19924;-65
2021/01/27 02:40:27;;;;;;;;;;;-1.70;99.90;;;;;;5084584;28;19912;-65
2021/01/27 02:42:57;;;;;;;;;;;-1.60;99.90;;;;;;5084630;28;19923;-65
2021/01/27 02:45:34;;;;;;;;;;;-1.60;99.90;;;;;;5080546;28;19920;-65
2021/01/27 02:48:06;;;;;;;;;;;-1.60;99.90;;;;;;5083077;28;19916;-65
2021/01/27 02:50:39;;;;;;;;;;;-1.60;99.90;;;;;;5079737;28;20373;-65
2021/01/27 02:53:14;;;;;;;;;;;-1.60;99.90;;;;;;5060511;28;19928;-65
2021/01/27 02:55:41;;;;;;;;;;;-1.60;99.90;;;;;;5075947;28;20404;-65
2021/01/27 02:58:14;;;;;;;;;;;-1.60;99.90;;;;;;5076209;28;19912;-65
2021/01/27 03:00:41;;;;;;;;;;;-1.50;99.90;;;;;;5076942;28;19920;-65
2021/01/27 03:03:10;;;;;;;;;;;-1.50;99.90;;;;;;5077348;28;19920;-65
2021/01/27 03:05:43;;;;;;;;;;;-1.50;99.90;;;;;;5067838;28;19923;-65
2021/01/27 03:08:10;;;;;;;;;;;-1.50;99.90;;;;;;5070695;28;19943;-65
2021/01/27 03:10:59;;;;;;;;;;;-1.40;99.90;;;;;;5073082;28;19935;-65
2021/01/27 03:13:25;;;;;;;;;;;-1.40;99.90;;;;;;5069387;28;19920;-65
2021/01/27 03:15:51;;;;;;;;;;;-1.40;99.90;;;;;;5078248;28;20384;-65
2021/01/27 03:18:20;;;;;;;;;;;-1.40;99.90;;;;;;5076688;28;20284;-65
2021/01/27 03:20:46;;;;;;;;;;;-1.40;99.90;;;;;;5074835;28;19912;-65
2021/01/27 03:23:15;;;;;;;;;;;-1.40;99.90;;;;;;5077060;28;20396;-65
2021/01/27 03:25:53;;;;;;;;;;;-1.40;99.90;;;;;;5083399;28;20301;-65
2021/01/27 03:28:21;;;;;;;;;;;-1.40;99.90;;;;;;5082006;28;19920;-65
2021/01/27 03:30:47;;;;;;;;;;;-1.40;99.90;;;;;;5082320;28;19919;-65
2021/01/27 03:33:17;;;;;;;;;;;-1.40;99.90;;;;;;5082858;28;19994;-65
2021/01/27 03:35:56;;;;;;;;;;;-1.30;99.90;;;;;;5081868;28;20300;-65
2021/01/27 03:38:35;;;;;;;;;;;-1.30;99.90;;;;;;5077490;28;20416;-65
2021/01/27 03:41:20;;;;;;;;;;;-1.30;99.90;;;;;;5083493;28;19912;-65
2021/01/27 03:43:58;;;;;;;;;;;-1.40;99.90;;;;;;5084251;28;19975;-65
2021/01/27 03:46:34;;;;;;;;;;;-1.40;99.90;;;;;;5085021;28;19927;-64
2021/01/27 03:49:20;;;;;;;;;;;-1.40;99.90;;;;;;5082285;28;19916;-64
2021/01/27 03:51:47;;;;;;;;;;;-1.40;99.90;;;;;;5054487;28;19935;-65
2021/01/27 03:54:17;;;;;;;;;;;-1.40;99.90;;;;;;5086013;28;19924;-65
2021/01/27 03:57:01;;;;;;;;;;;-1.30;99.90;;;;;;5081719;28;20400;-65
2021/01/27 03:59:27;;;;;;;;;;;-1.30;99.90;;;;;;5074014;28;19919;-64
2021/01/27 04:01:54;;;;;;;;;;;-1.20;99.90;;;;;;5075879;28;19923;-64
2021/01/27 04:04:20;;;;;;;;;;;-1.20;99.90;;;;;;5075026;28;20364;-64
2021/01/27 04:06:46;;;;;;;;;;;-1.20;99.90;;;;;;5084977;28;19916;-65
2021/01/27 04:09:12;;;;;;;;;;;-1.10;99.90;;;;;;5084713;28;20305;-64
2021/01/27 04:11:38;;;;;;;;;;;-1.10;99.90;;;;;;5076322;28;20358;-64
2021/01/27 04:14:04;;;;;;;;;;;-1.10;99.90;;;;;;5084498;28;19977;-64
2021/01/27 04:16:30;;;;;;;;;;;-1.10;99.90;;;;;;5077594;28;19936;-64
2021/01/27 04:18:59;;;;;;;;;;;-1.10;99.90;;;;;;5082184;28;20371;-64
2021/01/27 04:21:24;;;;;;;;;;;-1.10;99.90;;;;;;5078085;28;20289;-64
2021/01/27 04:23:51;;;;;;;;;;;-1.10;99.90;;;;;;5079400;28;19923;-65
2021/01/27 04:26:17;;;;;;;;;;;-1.10;99.90;;;;;;5079060;28;19916;-64
2021/01/27 04:28:43;;;;;;;;;;;-1.00;99.90;;;;;;5072492;28;19916;-64
2021/01/27 04:31:09;;;;;;;;;;;-1.00;99.90;;;;;;5079892;28;19920;-64
2021/01/27 04:33:35;;;;;;;;;;;-1.00;99.90;;;;;;5075678;28;19926;-65
2021/01/27 04:36:01;;;;;;;;;;;-1.00;99.90;;;;;;5086716;28;19916;-64
2021/01/27 04:38:27;;;;;;;;;;;-1.00;99.90;;;;;;5082656;28;19917;-64
2021/01/27 04:40:53;;;;;;;;;;;-1.00;99.90;;;;;;5086849;28;20320;-65
2021/01/27 04:43:24;;;;;;;;;;;-1.00;99.90;;;;;;5074665;28;20272;-64
2021/01/27 04:46:10;;;;;;;;;;;-1.00;99.90;;;;;;5070356;28;20361;-64
2021/01/27 04:49:00;;;;;;;;;;;-0.90;99.90;;;;;;5070404;28;19920;-64
2021/01/27 04:51:27;;;;;;;;;;;-0.90;99.90;;;;;;5064606;28;19912;-64
2021/01/27 04:53:56;;;;;;;;;;;-0.90;99.90;;;;;;5071376;28;20373;-64
2021/01/27 04:56:31;;;;;;;;;;;-0.90;99.90;;;;;;5071009;28;19923;-64
2021/01/27 04:58:57;;;;;;;;;;;-0.90;99.90;;;;;;5072080;28;19912;-64
2021/01/27 05:01:35;;;;;;;;;;;-0.90;99.90;;;;;;5075487;28;19923;-64
2021/01/27 05:04:12;;;;;;;;;;;-0.90;99.90;;;;;;5076178;28;20277;-64
2021/01/27 05:06:40;;;;;;;;;;;-0.80;99.90;;;;;;5074109;28;19912;-65
2021/01/27 05:09:08;;;;;;;;;;;-0.90;99.90;;;;;;5074314;28;19912;-64
2021/01/27 05:11:34;;;;;;;;;;;-0.80;99.90;;;;;;5074556;28;19916;-64
2021/01/27 05:14:01;;;;;;;;;;;-0.80;99.90;;;;;;5075933;28;20027;-65
2021/01/27 05:16:27;;;;;;;;;;;-0.80;99.90;;;;;;5078700;28;20308;-64
2021/01/27 05:18:58;;;;;;;;;;;-0.80;99.90;;;;;;5074695;28;19924;-68
2021/01/27 05:21:27;;;;;;;;;;;-0.80;99.90;;;;;;5076056;28;19920;-66
2021/01/27 05:23:53;;;;;;;;;;;-0.80;99.90;;;;;;5076397;28;20357;-68
2021/01/27 05:26:19;;;;;;;;;;;-0.80;99.90;;;;;;5089162;28;19925;-68
2021/01/27 05:28:47;;;;;;;;;;;-0.80;99.90;;;;;;5094726;28;19913;-68
2021/01/27 05:31:13;;;;;;;;;;;-0.70;99.90;;;;;;5074820;28;19916;-68
2021/01/27 05:33:46;;;;;;;;;;;-0.70;99.90;;;;;;5075868;28;20297;-68
2021/01/27 05:36:17;;;;;;;;;;;-0.70;99.90;;;;;;5074625;28;20276;-68
2021/01/27 05:38:43;;;;;;;;;;;-0.70;99.90;;;;;;5056181;28;19933;-68
2021/01/27 05:41:15;;;;;;;;;;;-0.70;99.90;;;;;;5062852;28;19916;-68
2021/01/27 05:43:41;;;;;;;;;;;-0.70;99.90;;;;;;5075685;28;19927;-68
2021/01/27 05:46:11;;;;;;;;;;;-0.70;99.90;;;;;;5075826;28;19912;-68
2021/01/27 05:48:41;;;;;;;;;;;-0.60;99.90;;;;;;5074559;28;19912;-68
2021/01/27 05:51:06;;;;;;;;;;;-0.60;99.90;;;;;;5075945;28;19920;-68
2021/01/27 05:53:33;;;;;;;;;;;-0.60;99.90;;;;;;5075586;28;20281;-68
2021/01/27 05:56:05;;;;;;;;;;;-0.60;99.90;;;;;;5108475;28;19923;-68
2021/01/27 05:58:35;;;;;;;;;;;-0.60;99.90;;;;;;5075343;28;19909;-68
2021/01/27 06:01:20;;;;;;;;;;;-0.60;99.90;;;;;;5091538;28;19909;-68
2021/01/27 06:04:04;;;;;;;;;;;-0.60;99.90;;;;;;5077084;28;19913;-68
2021/01/27 06:06:33;;;;;;;;;;;-0.60;99.90;;;;;;5074687;28;19913;-68
2021/01/27 06:09:00;;;;;;;;;;;-0.60;99.90;;;;;;5074599;28;20277;-68
2021/01/27 06:11:25;;;;;;;;;;;-0.60;99.90;;;;;;5073038;28;19908;-68
2021/01/27 06:14:03;;;;;;;;;;;-0.50;99.90;;;;;;5107649;28;19986;-68
2021/01/27 06:16:33;;;;;;;;;;;-0.50;99.90;;;;;;5107803;28;19915;-68
2021/01/27 06:19:16;;;;;;;;;;;-0.50;99.90;;;;;;5108058;28;19913;-68
2021/01/27 06:22:00;;;;;;;;;;;-0.50;99.90;;;;;;5110694;28;19916;-68
2021/01/27 06:24:33;;;;;;;;;;;-0.50;99.90;;;;;;5077528;28;19917;-68
2021/01/27 06:26:59;;;;;;;;;;;-0.50;99.90;;;;;;5074531;28;19924;-68
2021/01/27 06:29:30;;;;;;;;;;;-0.40;99.90;;;;;;5074526;28;20369;-69
2021/01/27 06:31:59;;;;;;;;;;;-0.40;99.90;;;;;;5074435;28;19916;-68
2021/01/27 06:34:28;;;;;;;;;;;-0.40;99.90;;;;;;5074534;28;19927;-68
2021/01/27 06:36:56;;;;;;;;;;;-0.40;99.90;;;;;;5074168;28;19916;-68
2021/01/27 06:39:48;;;;;;;;;;;-0.40;99.90;;;;;;5091783;28;20285;-68
2021/01/27 06:42:19;;;;;;;;;;;-0.40;99.90;;;;;;5054726;28;20308;-68
2021/01/27 06:45:04;;;;;;;;;;;-0.40;99.90;;;;;;5060739;28;19909;-68
2021/01/27 06:47:36;;;;;;;;;;;-0.40;99.90;;;;;;5061254;28;19920;-68
2021/01/27 06:50:02;;;;;;;;;;;-0.40;99.90;;;;;;5066151;28;19916;-68
2021/01/27 06:52:37;;;;;;;;;;;-0.30;99.90;;;;;;5074932;28;19920;-68
2021/01/27 06:55:18;;;;;;;;;;;-0.30;99.90;;;;;;5073416;28;20305;-68
2021/01/27 06:57:50;;;;;;;;;;;-0.30;99.90;;;;;;5071536;28;20033;-68
2021/01/27 07:00:35;;;;;;;;;;;-0.30;99.90;;;;;;5077004;28;19912;-68
2021/01/27 07:03:08;;;;;;;;;;;-0.30;99.90;;;;;;5074005;28;19919;-68
2021/01/27 07:05:37;;;;;;;;;;;-0.30;99.90;;;;;;5065866;28;19917;-68
2021/01/27 07:08:09;;;;;;;;;;;-0.30;99.90;;;;;;5075547;28;19912;-68
2021/01/27 07:10:54;;;;;;;;;;;-0.20;99.90;;;;;;5105805;28;19909;-68
2021/01/27 07:13:19;;;;;;;;;;;-0.20;99.90;;;;;;5073827;28;19923;-68
2021/01/27 07:15:49;;;;;;;;;;;-0.20;99.90;;;;;;5073941;28;19912;-68
2021/01/27 07:18:21;;;;;;;;;;;-0.20;99.90;;;;;;5071979;28;19913;-68
2021/01/27 07:21:02;;;;;;;;;;;-0.20;99.90;;;;;;5074107;28;19920;-68
2021/01/27 07:23:34;;;;;;;;;;;-0.20;99.90;;;;;;5073106;28;19912;-68
2021/01/27 07:26:05;;;;;;;;;;;-0.20;99.90;;;;;;5073180;28;20293;-68
2021/01/27 07:28:31;;;;;;;;;;;-0.20;99.90;;;;;;5072597;28;19912;-69
2021/01/27 07:31:00;;;;;;;;;;;-0.20;99.90;;;;;;5073106;28;21492;-68
2021/01/27 07:33:34;;;;;;;;;;;-0.10;99.90;;;;;;5071502;28;19920;-68
2021/01/27 07:36:03;;;;;;;;;;;-0.10;99.90;;;;;;5071004;28;19919;-68
2021/01/27 07:38:32;;;;;;;;;;;-0.10;99.90;;;;;;5071494;28;19919;-68
2021/01/27 07:41:09;;;;;;;;;;;-0.10;99.90;;;;;;5070904;28;19912;-68
2021/01/27 07:43:54;;;;;;;;;;;-0.10;99.90;;;;;;5071343;28;19912;-68
2021/01/27 07:46:39;;;;;;;;;;;-0.10;99.90;;;;;;5071252;28;19917;-69
2021/01/27 07:49:05;;;;;;;;;;;-0.10;99.90;;;;;;5065158;28;19913;-68
2021/01/27 07:51:56;;;;;;;;;;;0.00;99.90;;;;;;5072017;28;19931;-69
2021/01/27 07:54:42;;;;;;;;;;;0.00;99.90;;;;;;5071819;28;20285;-68
2021/01/27 07:57:23;;;;;;;;;;;0.00;99.90;;;;;;5073244;28;20273;-68
2021/01/27 07:59:51;;;;;;;;;;;0.00;99.90;;;;;;5071777;28;19912;-68
2021/01/27 08:02:20;;;;;;;;;;;0.00;99.90;;;;;;5070742;28;20365;-68
2021/01/27 08:04:50;;;;;;;;;;;0.00;99.90;;;;;;5071112;28;19912;-68
2021/01/27 08:07:17;;;;;;;;;;;0.10;99.90;;;;;;5071486;28;19912;-68
2021/01/27 08:09:43;;;;;;;;;;;0.10;99.90;;;;;;5072351;28;20391;-68
2021/01/27 08:12:17;;;;;;;;;;;0.10;99.90;;;;;;5072067;28;20629;-68
2021/01/27 08:15:19;;;;;;;;;;;0.10;99.90;;;;;;5071628;28;19932;-68
2021/01/27 08:17:45;;;;;;;;;;;0.20;99.90;;;;;;5049941;28;20008;-69
2021/01/27 08:20:16;;;;;;;;;;;0.30;99.90;;;;;;5067894;28;19913;-68
2021/01/27 08:22:46;;;;;;;;;;;0.30;99.90;;;;;;5070793;28;20285;-68
2021/01/27 08:25:12;;;;;;;;;;;0.30;99.90;;;;;;5072493;28;19923;-68
2021/01/27 08:27:38;;;;;;;;;;;0.30;99.90;;;;;;5053988;28;20373;-68
2021/01/27 08:30:06;;;;;;;;;;;0.40;99.90;;;;;;5072551;28;19923;-68
2021/01/27 08:32:33;;;;;;;;;;;0.40;99.90;;;;;;5071733;28;19912;-69
2021/01/27 08:35:00;;;;;;;;;;;0.40;99.90;;;;;;5071663;28;19928;-68
2021/01/27 08:37:27;;;;;;;;;;;0.40;99.90;;;;;;5072345;28;19920;-68
2021/01/27 08:40:06;;;;;;;;;;;0.50;99.90;;;;;;5072377;28;19924;-68
2021/01/27 08:42:45;;;;;;;;;;;0.50;99.90;;;;;;5066954;28;19919;-68
2021/01/27 08:45:23;;;;;;;;;;;0.50;99.90;;;;;;5070289;28;19919;-68
2021/01/27 08:47:50;;;;;;;;;;;0.50;99.90;;;;;;5071999;28;20296;-68
2021/01/27 08:50:36;;;;;;;;;;;0.50;99.90;;;;;;5072337;28;20353;-68
2021/01/27 08:53:11;;;;;;;;;;;0.50;99.90;;;;;;5068166;28;19912;-68
2021/01/27 08:55:52;;;;;;;;;;;0.60;99.90;;;;;;5071070;28;20379;-68
2021/01/27 08:58:18;;;;;;;;;;;0.60;99.90;;;;;;5071428;28;19912;-68
2021/01/27 09:00:44;;;;;;;;;;;0.60;99.90;;;;;;5072603;28;20392;-69
2021/01/27 09:03:30;;;;;;;;;;;0.60;99.90;;;;;;5080218;28;19920;-68
2021/01/27 09:05:56;;;;;;;;;;;0.70;99.90;;;;;;5076209;28;19912;-68
2021/01/27 09:08:25;;;;;;;;;;;0.70;99.90;;;;;;5073335;28;19923;-68
2021/01/27 09:11:01;;;;;;;;;;;0.70;99.90;;;;;;5071753;28;19912;-68
2021/01/27 09:13:30;;;;;;;;;;;0.70;99.90;;;;;;5053634;28;19912;-69
2021/01/27 09:16:02;;;;;;;;;;;0.70;99.90;;;;;;5071046;28;19913;-68
2021/01/27 09:18:27;;;;;;;;;;;0.80;99.90;;;;;;5070644;28;19912;-68
2021/01/27 09:20:53;;;;;;;;;;;0.80;99.90;;;;;;5071477;28;19929;-68
2021/01/27 09:23:20;;;;;;;;;;;0.80;99.90;;;;;;5071874;28;19912;-68
2021/01/27 09:25:46;;;;;;;;;;;0.80;99.90;;;;;;5070463;28;19924;-68
2021/01/27 09:28:12;;;;;;;;;;;0.80;99.90;;;;;;5071953;28;19920;-68
2021/01/27 09:30:38;;;;;;;;;;;0.90;99.90;;;;;;5076564;28;20332;-68
2021/01/27 09:33:08;;;;;;;;;;;0.90;99.90;;;;;;5079189;28;20316;-68
2021/01/27 09:35:34;;;;;;;;;;;0.90;99.90;;;;;;5075221;28;19924;-68
2021/01/27 09:38:00;;;;;;;;;;;1.00;99.90;;;;;;5073671;28;19912;-68
2021/01/27 09:40:29;;;;;;;;;;;1.00;99.90;;;;;;5070746;28;19912;-68
2021/01/27 09:42:56;;;;;;;;;;;1.00;99.90;;;;;;5069684;28;19944;-68
2021/01/27 09:45:24;;;;;;;;;;;1.00;99.90;;;;;;5068874;28;19913;-68
2021/01/27 09:47:51;;;;;;;;;;;1.00;99.90;;;;;;5073411;28;19927;-68
2021/01/27 09:50:17;;;;;;;;;;;1.00;99.90;;;;;;5074164;28;19920;-68
2021/01/27 09:52:43;;;;;;;;;;;1.00;99.90;;;;;;5073890;28;19913;-68
2021/01/27 09:55:13;;;;;;;;;;;1.00;99.90;;;;;;5081756;28;19951;-68
2021/01/27 09:57:39;;;;;;;;;;;1.10;99.90;;;;;;5077701;28;19923;-68
2021/01/27 10:00:11;;;;;;;;;;;1.10;99.90;;;;;;5078405;28;19923;-68
2021/01/27 10:02:37;;;;;;;;;;;1.10;99.90;;;;;;5083238;28;19919;-68
2021/01/27 10:05:23;;;;;;;;;;;1.10;99.90;;;;;;5086257;28;19916;-66
2021/01/27 10:07:49;;;;;;;;;;;1.20;99.90;;;;;;5077452;28;20024;-66
2021/01/27 10:10:16;;;;;;;;;;;1.20;99.90;;;;;;5085143;28;19977;-66
2021/01/27 10:12:42;;;;;;;;;;;1.20;99.90;;;;;;5077351;28;20361;-66
2021/01/27 10:15:13;;;;;;;;;;;1.20;99.90;;;;;;5056607;28;19927;-66
2021/01/27 10:17:39;;;;;;;;;;;1.20;99.90;;;;;;5073275;28;19912;-66
2021/01/27 10:20:18;;;;;;;;;;;1.20;99.90;;;;;;5074780;28;19920;-66
2021/01/27 10:22:49;;;;;;;;;;;1.30;99.90;;;;;;5073313;28;20370;-68
2021/01/27 10:25:32;;;;;;;;;;;1.30;99.90;;;;;;5072490;28;19924;-66
2021/01/27 10:28:21;;;;;;;;;;;1.30;99.90;;;;;;5080668;28;20388;-67
2021/01/27 10:30:48;;;;;;;;;;;1.30;99.90;;;;;;5068214;28;19912;-67
2021/01/27 10:33:33;;;;;;;;;;;1.40;99.90;;;;;;5074579;28;20376;-67
2021/01/27 10:35:59;;;;;;;;;;;1.40;99.90;;;;;;5074093;28;19920;-67
2021/01/27 10:38:25;;;;;;;;;;;1.40;99.90;;;;;;5073684;28;19916;-68
2021/01/27 10:41:04;;;;;;;;;;;1.40;99.90;;;;;;5074019;28;20289;-68
2021/01/27 10:43:30;;;;;;;;;;;1.40;99.90;;;;;;5075580;28;19919;-67
2021/01/27 10:45:56;;;;;;;;;;;1.50;99.90;;;;;;5079622;28;20342;-67
2021/01/27 10:48:31;;;;;;;;;;;1.50;99.90;;;;;;5081656;28;19919;-66
2021/01/27 10:51:04;;;;;;;;;;;1.50;99.90;;;;;;5079738;28;19920;-67
2021/01/27 10:53:30;;;;;;;;;;;1.50;99.90;;;;;;5082035;28;19919;-68
2021/01/27 10:55:56;;;;;;;;;;;1.50;99.90;;;;;;5082642;28;20387;-68
2021/01/27 10:58:22;;;;;;;;;;;1.60;99.90;;;;;;5080977;28;19912;-68
2021/01/27 11:00:48;;;;;;;;;;;1.60;99.90;;;;;;5075857;28;19923;-66
2021/01/27 11:03:14;;;;;;;;;;;1.60;99.90;;;;;;5072941;28;19912;-66
2021/01/27 11:05:40;;;;;;;;;;;1.50;99.90;;;;;;5091560;28;19912;-66
2021/01/27 11:08:07;;;;;;;;;;;1.50;99.90;;;;;;5086740;28;19909;-68
2021/01/27 11:10:33;;;;;;;;;;;1.50;99.90;;;;;;5070688;28;19916;-67
2021/01/27 11:12:59;;;;;;;;;;;1.60;99.90;;;;;;5071544;28;20309;-68
2021/01/27 11:15:25;;;;;;;;;;;1.60;99.90;;;;;;5073162;28;19936;-68
2021/01/27 11:17:51;;;;;;;;;;;1.60;99.90;;;;;;5074142;28;19919;-68
2021/01/27 11:20:19;;;;;;;;;;;1.60;99.90;;;;;;5078541;28;19919;-68
2021/01/27 11:22:46;;;;;;;;;;;1.60;99.90;;;;;;5074843;28;19940;-68
2021/01/27 11:25:14;;;;;;;;;;;1.70;99.90;;;;;;5080112;28;19912;-67
2021/01/27 11:27:40;;;;;;;;;;;1.70;99.90;;;;;;5071714;28;19924;-68
2021/01/27 11:30:06;;;;;;;;;;;1.70;99.90;;;;;;5067804;28;19938;-65
2021/01/27 11:32:32;;;;;;;;;;;1.70;99.90;;;;;;5072075;28;20262;-65
2021/01/27 11:34:58;;;;;;;;;;;1.70;99.90;;;;;;5071657;28;19974;-68
2021/01/27 11:37:24;;;;;;;;;;;1.80;99.90;;;;;;5072035;28;19912;-68
2021/01/27 11:39:50;;;;;;;;;;;1.80;99.90;;;;;;5073036;28;19913;-68
2021/01/27 11:42:16;;;;;;;;;;;1.80;99.90;;;;;;5072127;28;19928;-68
2021/01/27 11:44:41;;;;;;;;;;;1.80;99.90;;;;;;5072775;28;19986;-68
2021/01/27 11:47:07;;;;;;;;;;;1.90;99.90;;;;;;5072863;28;19923;-68
2021/01/27 11:49:33;;;;;;;;;;;1.90;99.90;;;;;;5073230;28;19970;-68
2021/01/27 11:52:00;;;;;;;;;;;1.80;99.90;;;;;;5073474;28;19916;-68
2021/01/27 11:54:26;;;;;;;;;;;1.80;99.90;;;;;;5082347;28;19924;-71
2021/01/27 11:56:52;;;;;;;;;;;1.80;99.90;;;;;;5075781;28;19924;-68
2021/01/27 11:59:18;;;;;;;;;;;1.90;99.90;;;;;;5072528;28;19916;-69
2021/01/27 12:01:44;;;;;;;;;;;1.80;99.90;;;;;;5072529;28;19944;-69
2021/01/27 12:04:10;;;;;;;;;;;1.80;99.90;;;;;;5072187;28;19927;-69
2021/01/27 12:06:36;;;;;;;;;;;1.90;99.90;;;;;;5071001;28;19966;-69
2021/01/27 12:09:02;;;;;;;;;;;1.90;99.90;;;;;;5070010;28;19917;-69
2021/01/27 12:11:28;;;;;;;;;;;1.90;99.90;;;;;;5069825;28;19923;-69
2021/01/27 12:13:54;;;;;;;;;;;1.90;99.90;;;;;;5069929;28;19947;-69
2021/01/27 12:16:20;;;;;;;;;;;1.90;99.90;;;;;;5070242;28;19920;-69
2021/01/27 12:18:46;;;;;;;;;;;1.90;99.90;;;;;;5069071;28;19916;-69
2021/01/27 12:21:12;;;;;;;;;;;2.00;99.90;;;;;;5071213;28;19935;-69
2021/01/27 12:23:38;;;;;;;;;;;2.00;99.90;;;;;;5071775;28;19920;-69
2021/01/27 12:26:04;;;;;;;;;;;2.00;99.90;;;;;;5070426;28;19928;-69
2021/01/27 12:28:31;;;;;;;;;;;2.10;99.90;;;;;;5067372;28;20228;-69
2021/01/27 12:30:57;;;;;;;;;;;2.10;99.90;;;;;;5077946;28;19917;-69
2021/01/27 12:33:24;;;;;;;;;;;2.10;99.90;;;;;;5081197;28;19916;-69
2021/01/27 12:35:50;;;;;;;;;;;2.20;99.90;;;;;;5076495;28;19931;-69
2021/01/27 12:38:16;;;;;;;;;;;2.20;99.90;;;;;;5080309;28;19920;-69
2021/01/27 12:40:44;;;;;;;;;;;2.20;99.90;;;;;;5077477;28;20384;-69
2021/01/27 12:43:10;;;;;;;;;;;2.20;99.90;;;;;;5072029;28;19939;-69
2021/01/27 12:45:36;;;;;;;;;;;2.20;99.90;;;;;;5072171;28;19924;-69
2021/01/27 12:48:02;;;;;;;;;;;2.20;99.90;;;;;;5071512;28;19917;-69
2021/01/27 12:50:28;;;;;;;;;;;2.30;99.90;;;;;;5071800;28;19923;-69
2021/01/27 12:52:54;;;;;;;;;;;2.20;99.90;;;;;;5072021;28;20329;-69
2021/01/27 12:55:20;;;;;;;;;;;2.30;99.90;;;;;;5072076;28;19924;-69
2021/01/27 12:57:46;;;;;;;;;;;2.30;99.90;;;;;;5071715;28;19913;-69
2021/01/27 13:00:20;;;;;;;;;;;2.30;99.90;;;;;;5071747;28;19944;-69
2021/01/27 13:02:46;;;;;;;;;;;2.30;99.90;;;;;;5070353;28;19944;-69
2021/01/27 13:05:12;;;;;;;;;;;2.30;99.90;;;;;;5096436;28;19921;-70
2021/01/27 13:07:38;;;;;;;;;;;2.30;99.90;;;;;;5072211;28;19923;-70
2021/01/27 13:10:04;;;;;;;;;;;2.30;99.90;;;;;;5071863;28;19960;-69
2021/01/27 13:12:30;;;;;;;;;;;2.30;99.90;;;;;;5077127;28;20300;-70
2021/01/27 13:14:56;;;;;;;;;;;2.30;99.90;;;;;;5081701;28;19970;-70
2021/01/27 13:17:23;;;;;;;;;;;2.30;99.90;;;;;;5083261;28;19924;-69
2021/01/27 13:19:48;;;;;;;;;;;2.30;99.90;;;;;;5083897;28;20349;-69
2021/01/27 13:22:16;;;;;;;;;;;2.30;99.90;;;;;;5077992;28;20353;-69
2021/01/27 13:24:42;;;;;;;;;;;2.30;99.90;;;;;;5074325;28;19921;-69
2021/01/27 13:27:08;;;;;;;;;;;2.40;99.90;;;;;;5074755;28;19921;-69
2021/01/27 13:29:34;;;;;;;;;;;2.40;99.90;;;;;;5074816;28;19917;-71
2021/01/27 13:32:00;;;;;;;;;;;2.40;99.90;;;;;;5074629;28;19924;-70
2021/01/27 13:34:26;;;;;;;;;;;2.40;99.90;;;;;;5074626;28;19924;-70
2021/01/27 13:36:52;;;;;;;;;;;2.40;99.90;;;;;;5073686;28;19958;-70
2021/01/27 13:39:18;;;;;;;;;;;2.40;99.90;;;;;;5075305;28;19963;-70
2021/01/27 13:41:44;;;;;;;;;;;2.40;99.90;;;;;;5074614;28;19994;-70
2021/01/27 13:44:10;;;;;;;;;;;2.40;99.90;;;;;;5074591;28;19970;-70
2021/01/27 13:46:36;;;;;;;;;;;2.40;99.90;;;;;;5075039;28;19924;-70
2021/01/27 13:49:02;;;;;;;;;;;2.40;99.90;;;;;;5075298;28;19920;-70
2021/01/27 13:51:28;;;;;;;;;;;2.40;99.90;;;;;;5084550;28;20007;-70
2021/01/27 13:53:54;;;;;;;;;;;2.40;99.90;;;;;;5081203;28;19951;-70
2021/01/27 13:56:20;;;;;;;;;;;2.40;99.90;;;;;;5081294;28;19932;-70
2021/01/27 13:58:46;;;;;;;;;;;2.40;99.90;;;;;;5086071;28;19920;-70
2021/01/27 14:01:11;;;;;;;;;;;2.40;99.90;;;;;;5082870;28;19917;-70
2021/01/27 14:03:37;;;;;;;;;;;2.40;99.90;;;;;;5074578;28;19923;-70
2021/01/27 14:06:04;;;;;;;;;;;2.40;99.90;;;;;;5079642;28;19924;-70
2021/01/27 14:08:30;;;;;;;;;;;2.40;99.90;;;;;;5075002;28;19920;-70
2021/01/27 14:10:56;;;;;;;;;;;2.40;99.90;;;;;;5074237;28;19920;-70
2021/01/27 14:13:22;;;;;;;;;;;2.50;99.90;;;;;;5074620;28;20415;-70
2021/01/27 14:15:48;;;;;;;;;;;2.50;99.90;;;;;;5073849;28;20448;-70
2021/01/27 14:18:14;;;;;;;;;;;2.50;99.90;;;;;;5073352;28;19958;-70
2021/01/27 14:20:39;;;;;;;;;;;2.50;99.90;;;;;;5074122;28;19970;-70
2021/01/27 14:23:05;;;;;;;;;;;2.50;99.90;;;;;;5074297;28;19931;-70
2021/01/27 14:25:31;;;;;;;;;;;2.50;99.90;;;;;;5072903;28;19963;-70
2021/01/27 14:27:58;;;;;;;;;;;2.50;99.90;;;;;;5073453;28;19932;-70
2021/01/27 14:30:25;;;;;;;;;;;2.50;99.90;;;;;;5074326;28;19916;-70
2021/01/27 14:32:51;;;;;;;;;;;2.50;99.90;;;;;;5076511;28;20388;-70
2021/01/27 14:35:18;;;;;;;;;;;2.50;99.90;;;;;;5080884;28;19967;-69